sensor_id;sensor_type;location;lat;lon;timestamp;P1;durP1;ratioP1;P2;durP2;ratioP2
46222;SDS011;31943;51.410;7.564;2023-12-20T00:01:03;10.95;;;8.82;;
46222;SDS011;31943;51.410;7.564;2023-12-20T00:03:29;9.73;;;8.60;;
46222;SDS011;31943;51.410;7.564;2023-12-20T00:05:54;11.18;;;9.45;;
46222;SDS011;31943;51.410;7.564;2023-12-20T00:08:22;12.10;;;10.35;;
46222;SDS011;31943;51.410;7.564;2023-12-20T00:10:47;12.35;;;9.77;;
46222;SDS011;31943;51.410;7.564;2023-12-20T00:13:13;9.82;;;8.60;;
46222;SDS011;31943;51.410;7.564;2023-12-20T00:15:40;10.95;;;7.45;;
46222;SDS011;31943;51.410;7.564;2023-12-20T00:18:05;10.35;;;7.20;;
46222;SDS011;31943;51.410;7.564;2023-12-20T00:20:31;10.35;;;6.60;;
46222;SDS011;31943;51.410;7.564;2023-12-20T00:22:57;6.78;;;5.47;;
46222;SDS011;31943;51.410;7.564;2023-12-20T00:25:24;7.95;;;5.57;;
46222;SDS011;31943;51.410;7.564;2023-12-20T00:27:50;9.95;;;5.55;;
46222;SDS011;31943;51.410;7.564;2023-12-20T00:30:16;6.78;;;5.05;;
46222;SDS011;31943;51.410;7.564;2023-12-20T00:32:41;8.60;;;5.88;;
46222;SDS011;31943;51.410;7.564;2023-12-20T00:35:08;7.97;;;6.00;;
46222;SDS011;31943;51.410;7.564;2023-12-20T00:37:34;10.38;;;6.45;;
46222;SDS011;31943;51.410;7.564;2023-12-20T00:39:59;11.90;;;6.63;;
46222;SDS011;31943;51.410;7.564;2023-12-20T00:42:26;10.45;;;7.18;;
46222;SDS011;31943;51.410;7.564;2023-12-20T00:44:53;14.85;;;8.70;;
46222;SDS011;31943;51.410;7.564;2023-12-20T00:47:18;14.48;;;9.63;;
46222;SDS011;31943;51.410;7.564;2023-12-20T00:49:44;15.23;;;9.70;;
46222;SDS011;31943;51.410;7.564;2023-12-20T00:52:09;12.25;;;9.65;;
46222;SDS011;31943;51.410;7.564;2023-12-20T00:54:35;12.70;;;9.68;;
46222;SDS011;31943;51.410;7.564;2023-12-20T00:57:00;14.52;;;9.73;;
46222;SDS011;31943;51.410;7.564;2023-12-20T00:59:30;14.23;;;9.45;;
46222;SDS011;31943;51.410;7.564;2023-12-20T01:01:57;11.77;;;8.70;;
46222;SDS011;31943;51.410;7.564;2023-12-20T01:04:24;12.02;;;8.35;;
46222;SDS011;31943;51.410;7.564;2023-12-20T01:06:49;16.65;;;9.95;;
46222;SDS011;31943;51.410;7.564;2023-12-20T01:09:15;14.70;;;9.90;;
46222;SDS011;31943;51.410;7.564;2023-12-20T01:11:40;14.35;;;9.55;;
46222;SDS011;31943;51.410;7.564;2023-12-20T01:14:07;11.85;;;9.02;;
46222;SDS011;31943;51.410;7.564;2023-12-20T01:16:34;12.57;;;8.93;;
46222;SDS011;31943;51.410;7.564;2023-12-20T01:18:59;11.60;;;7.63;;
46222;SDS011;31943;51.410;7.564;2023-12-20T01:21:25;12.13;;;8.48;;
46222;SDS011;31943;51.410;7.564;2023-12-20T01:23:51;17.52;;;7.68;;
46222;SDS011;31943;51.410;7.564;2023-12-20T01:26:16;17.67;;;7.75;;
46222;SDS011;31943;51.410;7.564;2023-12-20T01:28:42;14.35;;;6.20;;
46222;SDS011;31943;51.410;7.564;2023-12-20T01:31:08;8.57;;;4.38;;
46222;SDS011;31943;51.410;7.564;2023-12-20T01:33:35;15.07;;;6.40;;
46222;SDS011;31943;51.410;7.564;2023-12-20T01:36:00;15.85;;;5.95;;
46222;SDS011;31943;51.410;7.564;2023-12-20T01:38:27;8.85;;;5.85;;
46222;SDS011;31943;51.410;7.564;2023-12-20T01:40:53;12.05;;;6.57;;
46222;SDS011;31943;51.410;7.564;2023-12-20T01:43:18;12.18;;;6.45;;
46222;SDS011;31943;51.410;7.564;2023-12-20T01:45:45;14.25;;;6.80;;
46222;SDS011;31943;51.410;7.564;2023-12-20T01:48:11;12.70;;;6.22;;
46222;SDS011;31943;51.410;7.564;2023-12-20T01:50:39;15.30;;;6.60;;
46222;SDS011;31943;51.410;7.564;2023-12-20T01:53:05;10.98;;;6.25;;
46222;SDS011;31943;51.410;7.564;2023-12-20T01:55:35;12.27;;;5.90;;
46222;SDS011;31943;51.410;7.564;2023-12-20T01:58:03;13.23;;;6.05;;
46222;SDS011;31943;51.410;7.564;2023-12-20T02:00:29;15.82;;;6.30;;
46222;SDS011;31943;51.410;7.564;2023-12-20T02:02:56;12.15;;;6.78;;
46222;SDS011;31943;51.410;7.564;2023-12-20T02:05:25;13.52;;;6.80;;
46222;SDS011;31943;51.410;7.564;2023-12-20T02:07:53;13.65;;;6.47;;
46222;SDS011;31943;51.410;7.564;2023-12-20T02:10:19;10.13;;;4.18;;
46222;SDS011;31943;51.410;7.564;2023-12-20T02:12:45;13.65;;;5.05;;
46222;SDS011;31943;51.410;7.564;2023-12-20T02:15:11;8.43;;;4.65;;
46222;SDS011;31943;51.410;7.564;2023-12-20T02:17:38;10.40;;;4.38;;
46222;SDS011;31943;51.410;7.564;2023-12-20T02:20:05;11.82;;;4.50;;
46222;SDS011;31943;51.410;7.564;2023-12-20T02:22:33;10.43;;;3.63;;
46222;SDS011;31943;51.410;7.564;2023-12-20T02:24:59;9.32;;;3.63;;
46222;SDS011;31943;51.410;7.564;2023-12-20T02:27:25;6.90;;;2.15;;
46222;SDS011;31943;51.410;7.564;2023-12-20T02:29:51;5.03;;;2.05;;
46222;SDS011;31943;51.410;7.564;2023-12-20T02:32:17;6.15;;;2.55;;
46222;SDS011;31943;51.410;7.564;2023-12-20T02:34:43;7.50;;;2.17;;
46222;SDS011;31943;51.410;7.564;2023-12-20T02:37:09;8.43;;;2.40;;
46222;SDS011;31943;51.410;7.564;2023-12-20T02:39:36;10.25;;;2.50;;
46222;SDS011;31943;51.410;7.564;2023-12-20T02:42:01;7.07;;;2.15;;
46222;SDS011;31943;51.410;7.564;2023-12-20T02:44:27;8.98;;;2.78;;
46222;SDS011;31943;51.410;7.564;2023-12-20T02:46:53;11.50;;;2.80;;
46222;SDS011;31943;51.410;7.564;2023-12-20T02:49:18;10.63;;;3.30;;
46222;SDS011;31943;51.410;7.564;2023-12-20T02:51:44;8.73;;;2.72;;
46222;SDS011;31943;51.410;7.564;2023-12-20T02:54:10;7.15;;;3.47;;
46222;SDS011;31943;51.410;7.564;2023-12-20T02:56:38;13.48;;;4.63;;
46222;SDS011;31943;51.410;7.564;2023-12-20T02:59:04;11.18;;;4.35;;
46222;SDS011;31943;51.410;7.564;2023-12-20T03:01:29;8.85;;;5.00;;
46222;SDS011;31943;51.410;7.564;2023-12-20T03:03:56;12.30;;;5.90;;
46222;SDS011;31943;51.410;7.564;2023-12-20T03:06:21;17.33;;;6.28;;
46222;SDS011;31943;51.410;7.564;2023-12-20T03:08:48;10.18;;;6.13;;
46222;SDS011;31943;51.410;7.564;2023-12-20T03:11:13;13.85;;;6.68;;
46222;SDS011;31943;51.410;7.564;2023-12-20T03:13:40;15.05;;;6.40;;
46222;SDS011;31943;51.410;7.564;2023-12-20T03:16:08;12.38;;;6.05;;
46222;SDS011;31943;51.410;7.564;2023-12-20T03:18:34;12.90;;;6.55;;
46222;SDS011;31943;51.410;7.564;2023-12-20T03:20:59;14.75;;;6.53;;
46222;SDS011;31943;51.410;7.564;2023-12-20T03:23:25;15.13;;;6.35;;
46222;SDS011;31943;51.410;7.564;2023-12-20T03:25:50;17.05;;;6.50;;
46222;SDS011;31943;51.410;7.564;2023-12-20T03:28:16;11.40;;;5.25;;
46222;SDS011;31943;51.410;7.564;2023-12-20T03:30:43;14.30;;;5.57;;
46222;SDS011;31943;51.410;7.564;2023-12-20T03:33:09;12.10;;;5.93;;
46222;SDS011;31943;51.410;7.564;2023-12-20T03:35:34;9.77;;;5.47;;
46222;SDS011;31943;51.410;7.564;2023-12-20T03:38:00;8.98;;;4.82;;
46222;SDS011;31943;51.410;7.564;2023-12-20T03:40:25;11.90;;;5.18;;
46222;SDS011;31943;51.410;7.564;2023-12-20T03:42:51;10.60;;;5.43;;
46222;SDS011;31943;51.410;7.564;2023-12-20T03:45:16;14.77;;;5.00;;
46222;SDS011;31943;51.410;7.564;2023-12-20T03:47:43;14.00;;;4.70;;
46222;SDS011;31943;51.410;7.564;2023-12-20T03:50:09;12.50;;;5.22;;
46222;SDS011;31943;51.410;7.564;2023-12-20T03:52:35;15.38;;;4.95;;
46222;SDS011;31943;51.410;7.564;2023-12-20T03:55:00;15.65;;;4.20;;
46222;SDS011;31943;51.410;7.564;2023-12-20T03:57:26;12.93;;;3.85;;
46222;SDS011;31943;51.410;7.564;2023-12-20T03:59:52;13.32;;;4.55;;
46222;SDS011;31943;51.410;7.564;2023-12-20T04:02:17;16.83;;;4.35;;
46222;SDS011;31943;51.410;7.564;2023-12-20T04:04:44;14.07;;;4.47;;
46222;SDS011;31943;51.410;7.564;2023-12-20T04:07:10;13.07;;;4.15;;
46222;SDS011;31943;51.410;7.564;2023-12-20T04:09:35;15.68;;;4.18;;
46222;SDS011;31943;51.410;7.564;2023-12-20T04:12:01;13.90;;;4.20;;
46222;SDS011;31943;51.410;7.564;2023-12-20T04:14:27;14.85;;;3.92;;
46222;SDS011;31943;51.410;7.564;2023-12-20T04:16:52;13.40;;;4.20;;
46222;SDS011;31943;51.410;7.564;2023-12-20T04:19:18;20.35;;;4.35;;
46222;SDS011;31943;51.410;7.564;2023-12-20T04:21:46;12.35;;;4.38;;
46222;SDS011;31943;51.410;7.564;2023-12-20T04:24:11;16.05;;;4.85;;
46222;SDS011;31943;51.410;7.564;2023-12-20T04:26:37;12.70;;;4.70;;
46222;SDS011;31943;51.410;7.564;2023-12-20T04:29:02;13.05;;;4.53;;
46222;SDS011;31943;51.410;7.564;2023-12-20T04:31:28;20.02;;;5.53;;
46222;SDS011;31943;51.410;7.564;2023-12-20T04:33:53;15.48;;;5.60;;
46222;SDS011;31943;51.410;7.564;2023-12-20T04:36:19;18.20;;;6.05;;
46222;SDS011;31943;51.410;7.564;2023-12-20T04:38:46;15.15;;;5.65;;
46222;SDS011;31943;51.410;7.564;2023-12-20T04:41:12;10.80;;;5.32;;
46222;SDS011;31943;51.410;7.564;2023-12-20T04:43:37;15.75;;;6.70;;
46222;SDS011;31943;51.410;7.564;2023-12-20T04:46:03;15.85;;;6.50;;
46222;SDS011;31943;51.410;7.564;2023-12-20T04:48:28;14.18;;;6.85;;
46222;SDS011;31943;51.410;7.564;2023-12-20T04:50:54;16.42;;;6.57;;
46222;SDS011;31943;51.410;7.564;2023-12-20T04:53:19;19.90;;;8.32;;
46222;SDS011;31943;51.410;7.564;2023-12-20T04:55:47;16.95;;;6.75;;
46222;SDS011;31943;51.410;7.564;2023-12-20T04:58:12;16.70;;;7.60;;
46222;SDS011;31943;51.410;7.564;2023-12-20T05:00:39;19.10;;;8.25;;
46222;SDS011;31943;51.410;7.564;2023-12-20T05:03:04;15.20;;;7.22;;
46222;SDS011;31943;51.410;7.564;2023-12-20T05:05:30;17.90;;;7.20;;
46222;SDS011;31943;51.410;7.564;2023-12-20T05:07:55;20.85;;;7.25;;
46222;SDS011;31943;51.410;7.564;2023-12-20T05:10:21;23.77;;;7.10;;
46222;SDS011;31943;51.410;7.564;2023-12-20T05:12:48;14.48;;;7.40;;
46222;SDS011;31943;51.410;7.564;2023-12-20T05:15:14;16.90;;;7.10;;
46222;SDS011;31943;51.410;7.564;2023-12-20T05:17:40;19.80;;;7.10;;
46222;SDS011;31943;51.410;7.564;2023-12-20T05:20:06;17.98;;;6.85;;
46222;SDS011;31943;51.410;7.564;2023-12-20T05:22:32;17.95;;;7.38;;
46222;SDS011;31943;51.410;7.564;2023-12-20T05:24:58;18.02;;;7.43;;
46222;SDS011;31943;51.410;7.564;2023-12-20T05:27:23;19.58;;;8.35;;
46222;SDS011;31943;51.410;7.564;2023-12-20T05:29:50;14.10;;;7.22;;
46222;SDS011;31943;51.410;7.564;2023-12-20T05:32:16;16.85;;;7.50;;
46222;SDS011;31943;51.410;7.564;2023-12-20T05:34:42;17.50;;;6.55;;
46222;SDS011;31943;51.410;7.564;2023-12-20T05:37:07;17.58;;;6.93;;
46222;SDS011;31943;51.410;7.564;2023-12-20T05:39:33;19.23;;;7.13;;
46222;SDS011;31943;51.410;7.564;2023-12-20T05:41:58;13.90;;;7.07;;
46222;SDS011;31943;51.410;7.564;2023-12-20T05:44:24;18.67;;;7.18;;
46222;SDS011;31943;51.410;7.564;2023-12-20T05:46:51;19.55;;;7.05;;
46222;SDS011;31943;51.410;7.564;2023-12-20T05:49:16;16.13;;;6.80;;
46222;SDS011;31943;51.410;7.564;2023-12-20T05:51:42;18.77;;;6.43;;
46222;SDS011;31943;51.410;7.564;2023-12-20T05:54:07;21.25;;;7.00;;
46222;SDS011;31943;51.410;7.564;2023-12-20T05:56:37;18.17;;;7.63;;
46222;SDS011;31943;51.410;7.564;2023-12-20T05:59:04;22.25;;;6.97;;
46222;SDS011;31943;51.410;7.564;2023-12-20T06:01:30;19.63;;;7.65;;
46222;SDS011;31943;51.410;7.564;2023-12-20T06:03:57;19.95;;;7.43;;
46222;SDS011;31943;51.410;7.564;2023-12-20T06:06:23;18.73;;;6.80;;
46222;SDS011;31943;51.410;7.564;2023-12-20T06:08:49;20.90;;;6.63;;
46222;SDS011;31943;51.410;7.564;2023-12-20T06:11:14;17.13;;;7.40;;
46222;SDS011;31943;51.410;7.564;2023-12-20T06:13:40;25.55;;;6.78;;
46222;SDS011;31943;51.410;7.564;2023-12-20T06:16:06;16.73;;;6.05;;
46222;SDS011;31943;51.410;7.564;2023-12-20T06:18:32;19.20;;;6.70;;
46222;SDS011;31943;51.410;7.564;2023-12-20T06:20:59;18.60;;;6.60;;
46222;SDS011;31943;51.410;7.564;2023-12-20T06:23:25;13.57;;;5.90;;
46222;SDS011;31943;51.410;7.564;2023-12-20T06:25:51;20.13;;;6.15;;
46222;SDS011;31943;51.410;7.564;2023-12-20T06:28:17;11.80;;;6.13;;
46222;SDS011;31943;51.410;7.564;2023-12-20T06:30:42;14.18;;;5.85;;
46222;SDS011;31943;51.410;7.564;2023-12-20T06:33:09;16.45;;;5.60;;
46222;SDS011;31943;51.410;7.564;2023-12-20T06:35:37;19.33;;;6.45;;
46222;SDS011;31943;51.410;7.564;2023-12-20T06:38:05;15.65;;;5.82;;
46222;SDS011;31943;51.410;7.564;2023-12-20T06:40:31;11.13;;;5.35;;
46222;SDS011;31943;51.410;7.564;2023-12-20T06:43:00;18.88;;;5.80;;
46222;SDS011;31943;51.410;7.564;2023-12-20T06:45:27;16.20;;;5.60;;
46222;SDS011;31943;51.410;7.564;2023-12-20T06:47:54;12.95;;;5.88;;
46222;SDS011;31943;51.410;7.564;2023-12-20T06:50:20;22.48;;;5.93;;
46222;SDS011;31943;51.410;7.564;2023-12-20T06:52:46;15.05;;;4.95;;
46222;SDS011;31943;51.410;7.564;2023-12-20T06:55:15;17.63;;;5.45;;
46222;SDS011;31943;51.410;7.564;2023-12-20T06:57:40;17.20;;;5.15;;
46222;SDS011;31943;51.410;7.564;2023-12-20T07:00:07;16.05;;;4.95;;
46222;SDS011;31943;51.410;7.564;2023-12-20T07:02:33;17.17;;;4.68;;
46222;SDS011;31943;51.410;7.564;2023-12-20T07:04:59;19.33;;;5.88;;
46222;SDS011;31943;51.410;7.564;2023-12-20T07:07:24;19.13;;;5.57;;
46222;SDS011;31943;51.410;7.564;2023-12-20T07:09:50;18.95;;;5.28;;
46222;SDS011;31943;51.410;7.564;2023-12-20T07:12:18;17.83;;;5.38;;
46222;SDS011;31943;51.410;7.564;2023-12-20T07:14:43;17.13;;;5.35;;
46222;SDS011;31943;51.410;7.564;2023-12-20T07:17:09;15.25;;;5.25;;
46222;SDS011;31943;51.410;7.564;2023-12-20T07:19:35;15.88;;;4.75;;
46222;SDS011;31943;51.410;7.564;2023-12-20T07:22:01;19.10;;;5.70;;
46222;SDS011;31943;51.410;7.564;2023-12-20T07:24:26;16.10;;;4.97;;
46222;SDS011;31943;51.410;7.564;2023-12-20T07:26:52;18.60;;;5.70;;
46222;SDS011;31943;51.410;7.564;2023-12-20T07:29:20;15.70;;;4.65;;
46222;SDS011;31943;51.410;7.564;2023-12-20T07:31:45;14.57;;;4.75;;
46222;SDS011;31943;51.410;7.564;2023-12-20T07:34:12;19.33;;;4.93;;
46222;SDS011;31943;51.410;7.564;2023-12-20T07:36:38;14.43;;;4.70;;
46222;SDS011;31943;51.410;7.564;2023-12-20T07:39:04;18.90;;;4.78;;
46222;SDS011;31943;51.410;7.564;2023-12-20T07:41:29;17.05;;;5.10;;
46222;SDS011;31943;51.410;7.564;2023-12-20T07:43:56;14.07;;;4.20;;
46222;SDS011;31943;51.410;7.564;2023-12-20T07:46:23;14.15;;;4.70;;
46222;SDS011;31943;51.410;7.564;2023-12-20T07:48:49;15.23;;;4.57;;
46222;SDS011;31943;51.410;7.564;2023-12-20T07:51:14;10.45;;;4.05;;
46222;SDS011;31943;51.410;7.564;2023-12-20T07:53:40;12.57;;;3.88;;
46222;SDS011;31943;51.410;7.564;2023-12-20T07:56:15;14.23;;;4.35;;
46222;SDS011;31943;51.410;7.564;2023-12-20T07:58:41;17.30;;;4.10;;
46222;SDS011;31943;51.410;7.564;2023-12-20T08:01:07;16.45;;;4.13;;
46222;SDS011;31943;51.410;7.564;2023-12-20T08:03:35;13.35;;;4.57;;
46222;SDS011;31943;51.410;7.564;2023-12-20T08:06:00;14.50;;;4.57;;
46222;SDS011;31943;51.410;7.564;2023-12-20T08:08:27;13.43;;;4.13;;
46222;SDS011;31943;51.410;7.564;2023-12-20T08:10:53;14.48;;;4.70;;
46222;SDS011;31943;51.410;7.564;2023-12-20T08:13:18;15.73;;;4.60;;
46222;SDS011;31943;51.410;7.564;2023-12-20T08:15:44;12.48;;;4.28;;
46222;SDS011;31943;51.410;7.564;2023-12-20T08:18:10;17.33;;;4.70;;
46222;SDS011;31943;51.410;7.564;2023-12-20T08:20:37;12.27;;;4.57;;
46222;SDS011;31943;51.410;7.564;2023-12-20T08:23:03;12.93;;;3.80;;
46222;SDS011;31943;51.410;7.564;2023-12-20T08:25:29;16.83;;;5.07;;
46222;SDS011;31943;51.410;7.564;2023-12-20T08:27:54;11.18;;;4.32;;
46222;SDS011;31943;51.410;7.564;2023-12-20T08:30:20;16.58;;;4.53;;
46222;SDS011;31943;51.410;7.564;2023-12-20T08:32:46;18.75;;;4.75;;
46222;SDS011;31943;51.410;7.564;2023-12-20T08:35:12;12.88;;;4.78;;
46222;SDS011;31943;51.410;7.564;2023-12-20T08:37:40;13.80;;;4.15;;
46222;SDS011;31943;51.410;7.564;2023-12-20T08:40:06;11.95;;;5.00;;
46222;SDS011;31943;51.410;7.564;2023-12-20T08:42:32;19.33;;;5.18;;
46222;SDS011;31943;51.410;7.564;2023-12-20T08:44:58;16.95;;;5.18;;
46222;SDS011;31943;51.410;7.564;2023-12-20T08:47:23;17.48;;;4.80;;
46222;SDS011;31943;51.410;7.564;2023-12-20T08:49:49;16.90;;;4.47;;
46222;SDS011;31943;51.410;7.564;2023-12-20T08:52:14;18.70;;;5.22;;
46222;SDS011;31943;51.410;7.564;2023-12-20T08:54:42;11.13;;;4.57;;
46222;SDS011;31943;51.410;7.564;2023-12-20T08:57:08;18.23;;;5.30;;
46222;SDS011;31943;51.410;7.564;2023-12-20T08:59:34;17.73;;;5.00;;
46222;SDS011;31943;51.410;7.564;2023-12-20T09:01:59;22.00;;;5.78;;
46222;SDS011;31943;51.410;7.564;2023-12-20T09:04:26;16.33;;;4.70;;
46222;SDS011;31943;51.410;7.564;2023-12-20T09:06:51;13.25;;;5.47;;
46222;SDS011;31943;51.410;7.564;2023-12-20T09:09:17;18.75;;;5.32;;
46222;SDS011;31943;51.410;7.564;2023-12-20T09:11:44;15.73;;;5.18;;
46222;SDS011;31943;51.410;7.564;2023-12-20T09:14:10;16.52;;;5.50;;
46222;SDS011;31943;51.410;7.564;2023-12-20T09:16:36;14.98;;;5.70;;
46222;SDS011;31943;51.410;7.564;2023-12-20T09:19:02;19.08;;;5.22;;
46222;SDS011;31943;51.410;7.564;2023-12-20T09:21:27;14.95;;;5.13;;
46222;SDS011;31943;51.410;7.564;2023-12-20T09:23:53;11.27;;;5.45;;
46222;SDS011;31943;51.410;7.564;2023-12-20T09:26:18;19.63;;;6.50;;
46222;SDS011;31943;51.410;7.564;2023-12-20T09:28:46;15.35;;;5.28;;
46222;SDS011;31943;51.410;7.564;2023-12-20T09:31:12;17.35;;;5.47;;
46222;SDS011;31943;51.410;7.564;2023-12-20T09:33:37;20.63;;;5.47;;
46222;SDS011;31943;51.410;7.564;2023-12-20T09:36:03;14.38;;;4.70;;
46222;SDS011;31943;51.410;7.564;2023-12-20T09:38:29;17.45;;;4.82;;
46222;SDS011;31943;51.410;7.564;2023-12-20T09:40:55;16.13;;;3.90;;
46222;SDS011;31943;51.410;7.564;2023-12-20T09:43:23;13.25;;;3.53;;
46222;SDS011;31943;51.410;7.564;2023-12-20T09:45:52;15.05;;;3.97;;
46222;SDS011;31943;51.410;7.564;2023-12-20T09:48:19;8.18;;;3.33;;
46222;SDS011;31943;51.410;7.564;2023-12-20T09:50:45;15.38;;;3.78;;
46222;SDS011;31943;51.410;7.564;2023-12-20T09:53:11;9.48;;;3.20;;
46222;SDS011;31943;51.410;7.564;2023-12-20T09:55:40;9.88;;;3.50;;
46222;SDS011;31943;51.410;7.564;2023-12-20T09:58:07;12.68;;;3.80;;
46222;SDS011;31943;51.410;7.564;2023-12-20T10:00:32;14.68;;;3.53;;
46222;SDS011;31943;51.410;7.564;2023-12-20T10:03:00;17.60;;;4.20;;
46222;SDS011;31943;51.410;7.564;2023-12-20T10:05:27;13.85;;;3.58;;
46222;SDS011;31943;51.410;7.564;2023-12-20T10:07:54;11.10;;;3.45;;
46222;SDS011;31943;51.410;7.564;2023-12-20T10:10:20;14.43;;;4.15;;
46222;SDS011;31943;51.410;7.564;2023-12-20T10:13:00;16.42;;;4.63;;
46222;SDS011;31943;51.410;7.564;2023-12-20T10:15:27;14.05;;;3.95;;
46222;SDS011;31943;51.410;7.564;2023-12-20T10:17:53;15.25;;;4.13;;
46222;SDS011;31943;51.410;7.564;2023-12-20T10:20:20;14.65;;;3.65;;
46222;SDS011;31943;51.410;7.564;2023-12-20T10:22:46;13.77;;;3.47;;
46222;SDS011;31943;51.410;7.564;2023-12-20T10:25:13;13.68;;;3.90;;
46222;SDS011;31943;51.410;7.564;2023-12-20T10:27:38;16.67;;;3.90;;
46222;SDS011;31943;51.410;7.564;2023-12-20T10:30:04;15.93;;;3.72;;
46222;SDS011;31943;51.410;7.564;2023-12-20T10:32:31;12.10;;;3.60;;
46222;SDS011;31943;51.410;7.564;2023-12-20T10:34:58;14.30;;;3.25;;
46222;SDS011;31943;51.410;7.564;2023-12-20T10:37:25;8.95;;;3.00;;
46222;SDS011;31943;51.410;7.564;2023-12-20T10:39:52;15.00;;;3.33;;
46222;SDS011;31943;51.410;7.564;2023-12-20T10:42:19;12.40;;;3.70;;
46222;SDS011;31943;51.410;7.564;2023-12-20T10:44:46;16.15;;;3.95;;
46222;SDS011;31943;51.410;7.564;2023-12-20T10:47:12;14.52;;;3.60;;
46222;SDS011;31943;51.410;7.564;2023-12-20T10:49:39;15.65;;;3.83;;
46222;SDS011;31943;51.410;7.564;2023-12-20T10:52:09;11.45;;;3.50;;
46222;SDS011;31943;51.410;7.564;2023-12-20T10:54:39;12.27;;;3.38;;
46222;SDS011;31943;51.410;7.564;2023-12-20T10:57:06;12.15;;;3.60;;
46222;SDS011;31943;51.410;7.564;2023-12-20T10:59:32;15.18;;;4.07;;
46222;SDS011;31943;51.410;7.564;2023-12-20T11:02:02;17.02;;;3.85;;
46222;SDS011;31943;51.410;7.564;2023-12-20T11:04:28;14.45;;;3.53;;
46222;SDS011;31943;51.410;7.564;2023-12-20T11:07:04;12.05;;;3.97;;
46222;SDS011;31943;51.410;7.564;2023-12-20T11:09:43;17.02;;;3.67;;
46222;SDS011;31943;51.410;7.564;2023-12-20T11:12:15;20.92;;;4.85;;
46222;SDS011;31943;51.410;7.564;2023-12-20T11:14:46;15.48;;;3.90;;
46222;SDS011;31943;51.410;7.564;2023-12-20T11:17:14;16.13;;;4.07;;
46222;SDS011;31943;51.410;7.564;2023-12-20T11:19:43;14.93;;;3.88;;
46222;SDS011;31943;51.410;7.564;2023-12-20T11:22:31;16.10;;;4.10;;
46222;SDS011;31943;51.410;7.564;2023-12-20T11:25:02;13.00;;;3.55;;
46222;SDS011;31943;51.410;7.564;2023-12-20T11:27:30;13.60;;;4.60;;
46222;SDS011;31943;51.410;7.564;2023-12-20T11:29:56;10.73;;;3.88;;
46222;SDS011;31943;51.410;7.564;2023-12-20T11:32:27;15.52;;;4.57;;
46222;SDS011;31943;51.410;7.564;2023-12-20T11:34:54;12.90;;;4.18;;
46222;SDS011;31943;51.410;7.564;2023-12-20T11:37:22;15.18;;;4.00;;
46222;SDS011;31943;51.410;7.564;2023-12-20T11:39:54;11.63;;;4.35;;
46222;SDS011;31943;51.410;7.564;2023-12-20T11:42:22;15.43;;;4.22;;
46222;SDS011;31943;51.410;7.564;2023-12-20T11:44:47;14.68;;;5.10;;
46222;SDS011;31943;51.410;7.564;2023-12-20T11:47:13;11.88;;;4.38;;
46222;SDS011;31943;51.410;7.564;2023-12-20T11:49:38;14.88;;;4.50;;
46222;SDS011;31943;51.410;7.564;2023-12-20T11:52:04;16.48;;;4.70;;
46222;SDS011;31943;51.410;7.564;2023-12-20T11:54:30;17.90;;;4.70;;
46222;SDS011;31943;51.410;7.564;2023-12-20T11:56:56;14.93;;;4.82;;
46222;SDS011;31943;51.410;7.564;2023-12-20T11:59:24;16.52;;;5.15;;
46222;SDS011;31943;51.410;7.564;2023-12-20T12:01:50;16.92;;;5.32;;
46222;SDS011;31943;51.410;7.564;2023-12-20T12:04:16;13.00;;;4.68;;
46222;SDS011;31943;51.410;7.564;2023-12-20T12:06:42;11.43;;;5.20;;
46222;SDS011;31943;51.410;7.564;2023-12-20T12:09:07;13.00;;;4.55;;
46222;SDS011;31943;51.410;7.564;2023-12-20T12:11:33;17.58;;;5.22;;
46222;SDS011;31943;51.410;7.564;2023-12-20T12:13:59;16.63;;;5.53;;
46222;SDS011;31943;51.410;7.564;2023-12-20T12:16:26;15.20;;;4.97;;
46222;SDS011;31943;51.410;7.564;2023-12-20T12:18:56;14.10;;;5.00;;
46222;SDS011;31943;51.410;7.564;2023-12-20T12:21:22;12.13;;;5.38;;
46222;SDS011;31943;51.410;7.564;2023-12-20T12:23:47;17.48;;;5.75;;
46222;SDS011;31943;51.410;7.564;2023-12-20T12:26:13;12.60;;;4.53;;
46222;SDS011;31943;51.410;7.564;2023-12-20T12:28:39;13.82;;;5.18;;
46222;SDS011;31943;51.410;7.564;2023-12-20T12:31:06;12.57;;;5.10;;
46222;SDS011;31943;51.410;7.564;2023-12-20T12:33:34;17.17;;;5.20;;
46222;SDS011;31943;51.410;7.564;2023-12-20T12:36:00;13.45;;;5.00;;
46222;SDS011;31943;51.410;7.564;2023-12-20T12:38:26;13.45;;;4.70;;
46222;SDS011;31943;51.410;7.564;2023-12-20T12:40:52;13.85;;;4.70;;
46222;SDS011;31943;51.410;7.564;2023-12-20T12:43:19;15.25;;;5.07;;
46222;SDS011;31943;51.410;7.564;2023-12-20T12:45:45;19.60;;;5.32;;
46222;SDS011;31943;51.410;7.564;2023-12-20T12:48:10;12.30;;;4.18;;
46222;SDS011;31943;51.410;7.564;2023-12-20T12:50:38;13.10;;;5.32;;
46222;SDS011;31943;51.410;7.564;2023-12-20T12:53:03;12.60;;;5.00;;
46222;SDS011;31943;51.410;7.564;2023-12-20T12:55:29;13.93;;;4.60;;
46222;SDS011;31943;51.410;7.564;2023-12-20T12:57:55;16.70;;;4.43;;
46222;SDS011;31943;51.410;7.564;2023-12-20T13:00:20;10.50;;;4.43;;
46222;SDS011;31943;51.410;7.564;2023-12-20T13:02:46;21.00;;;5.13;;
46222;SDS011;31943;51.410;7.564;2023-12-20T13:05:12;13.50;;;4.15;;
46222;SDS011;31943;51.410;7.564;2023-12-20T13:07:40;13.25;;;4.85;;
46222;SDS011;31943;51.410;7.564;2023-12-20T13:10:06;12.02;;;4.60;;
46222;SDS011;31943;51.410;7.564;2023-12-20T13:12:32;12.93;;;3.88;;
46222;SDS011;31943;51.410;7.564;2023-12-20T13:14:57;16.73;;;4.53;;
46222;SDS011;31943;51.410;7.564;2023-12-20T13:17:23;11.00;;;4.03;;
46222;SDS011;31943;51.410;7.564;2023-12-20T13:19:50;12.70;;;3.90;;
46222;SDS011;31943;51.410;7.564;2023-12-20T13:22:15;8.73;;;3.72;;
46222;SDS011;31943;51.410;7.564;2023-12-20T13:24:46;14.05;;;3.70;;
46222;SDS011;31943;51.410;7.564;2023-12-20T13:27:12;12.52;;;4.18;;
46222;SDS011;31943;51.410;7.564;2023-12-20T13:29:38;15.35;;;3.88;;
46222;SDS011;31943;51.410;7.564;2023-12-20T13:32:05;15.90;;;4.63;;
46222;SDS011;31943;51.410;7.564;2023-12-20T13:34:35;15.48;;;4.45;;
46222;SDS011;31943;51.410;7.564;2023-12-20T13:37:01;12.23;;;4.13;;
46222;SDS011;31943;51.410;7.564;2023-12-20T13:39:29;14.63;;;4.90;;
46222;SDS011;31943;51.410;7.564;2023-12-20T13:41:58;10.68;;;4.07;;
46222;SDS011;31943;51.410;7.564;2023-12-20T13:44:25;16.92;;;4.72;;
46222;SDS011;31943;51.410;7.564;2023-12-20T13:46:50;16.85;;;4.43;;
46222;SDS011;31943;51.410;7.564;2023-12-20T13:49:16;14.10;;;4.78;;
46222;SDS011;31943;51.410;7.564;2023-12-20T13:51:42;15.77;;;4.65;;
46222;SDS011;31943;51.410;7.564;2023-12-20T13:54:07;12.32;;;4.38;;
46222;SDS011;31943;51.410;7.564;2023-12-20T13:56:47;17.20;;;5.45;;
46222;SDS011;31943;51.410;7.564;2023-12-20T13:59:14;12.27;;;5.13;;
46222;SDS011;31943;51.410;7.564;2023-12-20T14:01:39;19.63;;;5.30;;
46222;SDS011;31943;51.410;7.564;2023-12-20T14:04:05;18.65;;;4.68;;
46222;SDS011;31943;51.410;7.564;2023-12-20T14:06:31;10.23;;;3.80;;
46222;SDS011;31943;51.410;7.564;2023-12-20T14:08:56;10.50;;;4.13;;
46222;SDS011;31943;51.410;7.564;2023-12-20T14:11:22;10.93;;;3.72;;
46222;SDS011;31943;51.410;7.564;2023-12-20T14:13:48;10.88;;;4.05;;
46222;SDS011;31943;51.410;7.564;2023-12-20T14:16:15;12.02;;;3.70;;
46222;SDS011;31943;51.410;7.564;2023-12-20T14:18:41;7.75;;;2.92;;
46222;SDS011;31943;51.410;7.564;2023-12-20T14:21:07;12.27;;;3.60;;
46222;SDS011;31943;51.410;7.564;2023-12-20T14:23:32;8.52;;;3.30;;
46222;SDS011;31943;51.410;7.564;2023-12-20T14:25:58;7.00;;;3.58;;
46222;SDS011;31943;51.410;7.564;2023-12-20T14:28:24;6.07;;;3.45;;
46222;SDS011;31943;51.410;7.564;2023-12-20T14:30:49;10.57;;;3.53;;